Rio, WV (26755)

4:16 AM EDT on October 24, 2014 (GMT -0400)
Our Lady's Mount, Short Mountain WV | Change Station
CLOSE
Current Station
Personal Weather Station
Location: Delray, WV
Elevation: 1201 ft
Nearby Weather Stations

Elev 1201 ft 39.18 °N, 78.64 °W | Updated 3 minutes ago

Clear
Clear
48.7 °F
Feels Like 46 °F
N
6.8
Wind Variable Wind from NE

Today
High -- | Low -- °F
--% Chance of Precip.
Yesterday
High -- | Low -- °F
Precip. -- in
7:33 AM 6:23 PM
New Moon, 0% visible
Pressure 30.04 in
Visibility 10.0 miles
Clouds Clear
Windchill 46 °F
Dew Point 43 °F
Humidity 80%
Rainfall 0.00 in
Snow Depth Not available.
UV 0 out of 12
Pollen .70 out of 12
Air Quality Not available.
Flu Activity Sporadic
METAR KW99 240755Z AUTO 00000KT 10SM CLR 05/04 A3004 RMK AO2 T00500041

More Conditions Fewer Conditions

Pressure 30.04 in
Visibility 10.0 miles
Clouds Clear
Windchill 46 °F
Dew Point 43 °F
Humidity 80%
Rainfall 0.00 in
Snow Depth Not available.
UV 0 out of 12
Pollen .70 out of 12
Air Quality Not available.
Flu Activity Sporadic
METAR KW99 240755Z AUTO 00000KT 10SM CLR 05/04 A3004 RMK AO2 T00500041

More Conditions Fewer Conditions

10-Day Weather Forecast

Almanac

Astronomy

Oct. 24, 2014 Rise Set
Actual Time 7:33 AM EDT 6:23 PM EDT
Civil Twilight 7:06 AM EDT 6:50 PM EDT
Nautical Twilight 6:35 AM EDT 7:22 PM EDT
Astronomical Twilight 6:03 AM EDT 7:53 PM EDT
Moon 8:10 AM EDT 7:02 PM EDT
Length of Visible Light 11h 44m
Length of Day
10h 49m
Tomorrow will be 2m 22s shorter.
New Moon, 0% of the Moon is Illuminated
Today
New Moon
Oct 30
First Quarter
Nov 6
Full
Nov 14
Last Quarter
Nov 22
New

Today's Extremes

State Highs State Lows

Community

WunderPhotos

Upload Photos

1,764,511 photos uploaded!

WunderBlogs® & News

Nearby

Snow Depth

Station Depth Elevation
No new snow has been reported.

Earthquake Activity

City Distance Mag. Time & Date
No recent earthquake activity has been reported nearby.
Minimum magnitude displayed is 2.5.

Coastal Water Temperatures

Place Temperature
No Stations Reporting

Nearby Weather Stations